createdAt,value
2022-11-15T00:00:55.279Z,100812.81
2022-11-15T00:03:40.483Z,100812.13
2022-11-15T00:06:25.685Z,100819.84
2022-11-15T00:09:10.547Z,100817.34
2022-11-15T00:11:56.032Z,100815.66
2022-11-15T00:14:40.991Z,100818.13
2022-11-15T00:17:26.483Z,100814.56
2022-11-15T00:20:12.416Z,100811.41
2022-11-15T00:22:57.510Z,100813.06
2022-11-15T00:25:42.481Z,100816.41
2022-11-15T00:28:27.706Z,100806.81
2022-11-15T00:31:14.993Z,100815.13
2022-11-15T00:34:00.207Z,100800.25
2022-11-15T00:36:45.398Z,100792.78
2022-11-15T00:39:30.598Z,100801.94
2022-11-15T00:42:15.831Z,100802.94
2022-11-15T00:45:00.792Z,100794.53
2022-11-15T00:47:47.166Z,100789.94
2022-11-15T00:50:32.131Z,100794.94
2022-11-15T00:53:17.919Z,100796.53
2022-11-15T00:56:03.146Z,100782.78
2022-11-15T00:58:48.500Z,100775.69
2022-11-15T01:01:33.369Z,100784.00
2022-11-15T01:04:18.518Z,100771.78
2022-11-15T01:07:03.767Z,100781.31
2022-11-15T01:09:48.882Z,100778.00
2022-11-15T01:12:34.678Z,100782.97
2022-11-15T01:15:19.519Z,100772.84
2022-11-15T01:18:04.978Z,100782.91
2022-11-15T01:20:50.152Z,100772.78
2022-11-15T01:23:35.747Z,100775.00
2022-11-15T01:26:20.943Z,100767.56
2022-11-15T01:29:06.147Z,100758.78
2022-11-15T01:31:51.404Z,100762.78
2022-11-15T01:34:36.660Z,100758.34
2022-11-15T01:37:21.957Z,100745.72
2022-11-15T01:40:07.498Z,100750.25
2022-11-15T01:42:52.401Z,100758.63
2022-11-15T01:45:37.611Z,100761.88
2022-11-15T01:48:26.628Z,100757.66
2022-11-15T01:51:14.571Z,100760.44
2022-11-15T01:54:05.022Z,100760.06
2022-11-15T01:57:01.750Z,100762.91
2022-11-15T01:59:47.923Z,100761.00
2022-11-15T02:02:35.156Z,100764.94
2022-11-15T02:05:20.339Z,100752.44
2022-11-15T02:08:06.455Z,100751.00
2022-11-15T02:10:51.829Z,100738.00
2022-11-15T02:13:37.835Z,100747.34
2022-11-15T02:16:41.325Z,100744.25
2022-11-15T02:19:32.095Z,100733.38
2022-11-15T02:22:52.527Z,100736.75
2022-11-15T02:26:02.359Z,100721.91
2022-11-15T02:29:22.818Z,100727.50
2022-11-15T02:32:21.210Z,100735.50
2022-11-15T02:35:38.588Z,100731.34
2022-11-15T02:38:45.630Z,100719.63
2022-11-15T02:41:46.796Z,100720.47
2022-11-15T02:44:37.845Z,100716.69
2022-11-15T02:47:25.609Z,100709.44
2022-11-15T02:50:18.012Z,100708.28
2022-11-15T02:53:03.774Z,100695.13
2022-11-15T02:55:51.098Z,100704.97
2022-11-15T02:58:46.946Z,100709.34
2022-11-15T03:01:53.883Z,100698.34
2022-11-15T03:04:54.737Z,100696.09
2022-11-15T03:07:53.981Z,100695.84
2022-11-15T03:10:57.042Z,100704.03
2022-11-15T03:14:00.358Z,100700.25
2022-11-15T03:17:10.621Z,100703.69
2022-11-15T03:19:59.673Z,100699.91
2022-11-15T03:22:47.552Z,100695.97
2022-11-15T03:25:35.485Z,100701.66
2022-11-15T03:28:32.547Z,100701.44
2022-11-15T03:31:39.143Z,100693.13
2022-11-15T03:34:30.741Z,100702.72
2022-11-15T03:37:17.474Z,100703.09
2022-11-15T03:40:04.662Z,100704.63
2022-11-15T03:43:18.665Z,100706.28
2022-11-15T03:46:11.626Z,100699.41
2022-11-15T03:49:14.800Z,100701.16
2022-11-15T03:52:01.192Z,100696.69
2022-11-15T03:54:56.094Z,100701.06
2022-11-15T03:57:41.275Z,100695.97
2022-11-15T04:00:26.612Z,100694.31
2022-11-15T04:03:11.963Z,100682.34
2022-11-15T04:05:57.120Z,100692.78
2022-11-15T04:08:42.307Z,100689.09
2022-11-15T04:11:27.243Z,100699.75
2022-11-15T04:14:12.172Z,100697.53
2022-11-15T04:16:57.465Z,100686.13
2022-11-15T04:20:01.096Z,100685.28
2022-11-15T04:23:04.963Z,100693.72
2022-11-15T04:25:53.707Z,100699.25
2022-11-15T04:29:01.488Z,100695.97
2022-11-15T04:31:46.877Z,100682.41
2022-11-15T04:34:32.492Z,100691.34
2022-11-15T04:37:17.591Z,100687.78
2022-11-15T04:40:02.865Z,100687.78
2022-11-15T04:42:48.283Z,100688.34
2022-11-15T04:45:33.692Z,100696.53
2022-11-15T04:48:18.855Z,100697.25
2022-11-15T04:51:04.190Z,100690.38
2022-11-15T04:53:49.368Z,100690.84
2022-11-15T04:56:34.402Z,100693.94
2022-11-15T04:59:19.667Z,100685.75
2022-11-15T05:02:04.771Z,100696.16
2022-11-15T05:04:49.869Z,100690.59
2022-11-15T05:07:34.743Z,100683.59
2022-11-15T05:10:20.375Z,100690.81
2022-11-15T05:13:05.251Z,100688.66
2022-11-15T05:15:50.279Z,100685.84
2022-11-15T05:18:35.511Z,100679.44
2022-11-15T05:21:21.303Z,100699.00
2022-11-15T05:24:06.678Z,100696.84
2022-11-15T05:26:51.661Z,100683.47
2022-11-15T05:29:36.567Z,100682.16
2022-11-15T05:32:21.815Z,100681.44
2022-11-15T05:35:11.003Z,100682.75
2022-11-15T05:37:56.284Z,100676.13
2022-11-15T05:40:41.219Z,100680.59
2022-11-15T05:43:26.993Z,100676.69
2022-11-15T05:46:14.635Z,100682.25
2022-11-15T05:49:00.464Z,100678.06
2022-11-15T05:51:48.309Z,100671.34
2022-11-15T05:54:35.310Z,100681.16
2022-11-15T05:57:21.154Z,100675.63
2022-11-15T06:00:06.949Z,100689.81
2022-11-15T06:02:52.125Z,100680.91
2022-11-15T06:05:37.144Z,100688.06
2022-11-15T06:08:22.359Z,100695.06
2022-11-15T06:11:08.239Z,100697.88
2022-11-15T06:13:53.236Z,100690.06
2022-11-15T06:16:38.100Z,100692.81
2022-11-15T06:19:23.062Z,100694.06
2022-11-15T06:22:08.093Z,100689.22
2022-11-15T06:24:53.262Z,100696.44
2022-11-15T06:27:38.308Z,100700.69
2022-11-15T06:30:24.297Z,100716.50
2022-11-15T06:33:09.789Z,100705.25
2022-11-15T06:35:54.652Z,100707.72
2022-11-15T06:38:39.725Z,100706.06
2022-11-15T06:41:24.958Z,100704.97
2022-11-15T06:44:10.058Z,100703.91
2022-11-15T06:46:55.281Z,100710.56
2022-11-15T06:49:40.058Z,100715.19
2022-11-15T06:52:25.121Z,100721.47
2022-11-15T06:55:10.339Z,100723.53
2022-11-15T06:57:55.690Z,100722.78
2022-11-15T07:00:41.140Z,100721.72
2022-11-15T07:03:26.926Z,100730.66
2022-11-15T07:06:12.031Z,100730.72
2022-11-15T07:08:57.240Z,100729.09
2022-11-15T07:11:42.481Z,100728.97
2022-11-15T07:14:27.458Z,100730.38
2022-11-15T07:17:12.740Z,100733.84
2022-11-15T07:19:57.629Z,100732.63
2022-11-15T07:22:43.118Z,100733.94
2022-11-15T07:25:28.363Z,100744.53
2022-11-15T07:28:13.602Z,100734.78
2022-11-15T07:30:58.664Z,100737.16
2022-11-15T07:33:43.904Z,100742.97
2022-11-15T07:36:29.131Z,100738.00
2022-11-15T07:39:14.999Z,100728.97
2022-11-15T07:42:19.582Z,100726.75
2022-11-15T07:45:05.963Z,100729.09
2022-11-15T07:47:51.438Z,100717.81
2022-11-15T07:50:36.573Z,100727.44
2022-11-15T07:53:21.883Z,100726.25
2022-11-15T07:56:08.460Z,100721.97
2022-11-15T07:58:53.658Z,100725.75
2022-11-15T08:01:39.322Z,100725.41
2022-11-15T08:04:24.614Z,100725.88
2022-11-15T08:07:09.911Z,100730.25
2022-11-15T08:09:56.161Z,100736.44
2022-11-15T08:12:41.160Z,100741.53
2022-11-15T08:15:26.991Z,100746.63
2022-11-15T08:18:17.336Z,100744.50
2022-11-15T08:21:02.819Z,100740.69
2022-11-15T08:23:47.924Z,100742.59
2022-11-15T08:26:33.155Z,100742.72
2022-11-15T08:29:17.979Z,100737.47
2022-11-15T08:32:03.112Z,100731.53
2022-11-15T08:34:47.995Z,100736.50
2022-11-15T08:37:32.960Z,100729.13
2022-11-15T08:40:19.587Z,100724.50
2022-11-15T08:43:05.199Z,100722.63
2022-11-15T08:45:49.991Z,100726.03
2022-11-15T08:48:35.316Z,100707.75
2022-11-15T08:51:20.470Z,100706.69
2022-11-15T08:54:05.664Z,100712.97
2022-11-15T08:56:50.899Z,100706.69
2022-11-15T08:59:39.182Z,100700.13
2022-11-15T09:02:24.082Z,100697.88
2022-11-15T09:05:09.450Z,100706.41
2022-11-15T09:07:55.835Z,100704.50
2022-11-15T09:10:41.005Z,100702.84
2022-11-15T09:13:26.155Z,100699.06
2022-11-15T09:16:12.944Z,100681.84
2022-11-15T09:18:58.480Z,100678.53
2022-11-15T09:21:43.601Z,100679.94
2022-11-15T09:24:29.018Z,100675.06
2022-11-15T09:27:14.275Z,100674.81
2022-11-15T09:29:59.507Z,100667.44
2022-11-15T09:32:44.593Z,100672.91
2022-11-15T09:35:29.651Z,100664.72
2022-11-15T09:38:15.055Z,100668.63
2022-11-15T09:41:29.289Z,100672.84
2022-11-15T09:44:26.150Z,100666.56
2022-11-15T09:47:29.747Z,100677.34
2022-11-15T09:50:33.559Z,100671.63
2022-11-15T09:53:00.031Z,100659.13
2022-11-15T09:55:39.433Z,100665.44
2022-11-15T09:58:23.480Z,100660.56
2022-11-15T10:00:53.733Z,100651.88
2022-11-15T10:03:36.739Z,100668.28
2022-11-15T10:06:06.057Z,100659.25
2022-11-15T10:08:37.091Z,100647.25
2022-11-15T10:11:37.741Z,100644.84
2022-11-15T10:14:16.646Z,100650.31
2022-11-15T10:17:02.303Z,100643.53
2022-11-15T10:19:55.022Z,100642.44
2022-11-15T10:22:38.817Z,100646.91
2022-11-15T10:25:17.826Z,100648.66
2022-11-15T10:27:48.199Z,100648.16
2022-11-15T10:30:18.017Z,100637.13
2022-11-15T10:32:45.882Z,100647.00
2022-11-15T10:35:23.570Z,100627.53
2022-11-15T10:37:50.155Z,100616.34
2022-11-15T10:40:22.669Z,100619.66
2022-11-15T10:43:04.501Z,100631.16
2022-11-15T10:45:33.116Z,100616.44
2022-11-15T10:48:14.479Z,100614.53
2022-11-15T10:50:46.541Z,100614.53
2022-11-15T10:53:28.867Z,100610.22
2022-11-15T10:55:58.568Z,100608.31
2022-11-15T10:58:42.610Z,100598.28
2022-11-15T11:01:11.871Z,100595.63
2022-11-15T11:03:40.371Z,100595.28
2022-11-15T11:06:11.550Z,100600.91
2022-11-15T11:08:38.866Z,100590.88
2022-11-15T11:11:06.527Z,100590.59
2022-11-15T11:13:35.630Z,100590.59
2022-11-15T11:16:39.280Z,100583.56
2022-11-15T11:19:43.275Z,100591.00
2022-11-15T11:22:22.881Z,100575.50
2022-11-15T11:24:55.863Z,100564.56
2022-11-15T11:27:43.289Z,100565.13
2022-11-15T11:30:18.748Z,100562.59
2022-11-15T11:33:21.904Z,100550.81
2022-11-15T11:36:12.098Z,100550.63
2022-11-15T11:39:06.914Z,100543.81
2022-11-15T11:41:58.590Z,100536.69
2022-11-15T11:44:37.363Z,100529.69
2022-11-15T11:47:20.368Z,100516.84
2022-11-15T11:50:00.133Z,100517.19
2022-11-15T11:52:34.043Z,100524.41
2022-11-15T11:55:19.726Z,100520.91
2022-11-15T11:57:59.678Z,100514.06
2022-11-15T12:00:29.383Z,100503.75
2022-11-15T12:03:04.002Z,100502.22
2022-11-15T12:05:40.327Z,100501.63
2022-11-15T12:08:34.238Z,100482.16
2022-11-15T12:11:19.455Z,100481.44
2022-11-15T12:13:51.677Z,100468.31
2022-11-15T12:16:28.922Z,100473.06
2022-11-15T12:18:57.518Z,100460.69
2022-11-15T12:21:46.318Z,100470.66
2022-11-15T12:24:16.466Z,100464.69
2022-11-15T12:26:50.807Z,100461.44
2022-11-15T12:29:28.882Z,100451.38
2022-11-15T12:32:00.672Z,100447.56
2022-11-15T12:34:42.825Z,100447.59
2022-11-15T12:37:44.086Z,100440.72
2022-11-15T12:40:11.094Z,100431.91
2022-11-15T12:42:57.551Z,100432.78
2022-11-15T12:45:44.455Z,100421.00
2022-11-15T12:48:16.886Z,100408.91
2022-11-15T12:50:55.397Z,100418.22
2022-11-15T12:53:28.498Z,100417.88
2022-11-15T12:56:07.120Z,100406.66
2022-11-15T12:58:47.406Z,100397.34
2022-11-15T13:01:32.457Z,100400.06
2022-11-15T13:04:20.567Z,100393.75
2022-11-15T13:06:52.348Z,100384.66
2022-11-15T13:09:37.211Z,100384.75
2022-11-15T13:12:08.656Z,100381.41
2022-11-15T13:14:38.064Z,100379.25
2022-11-15T13:17:18.191Z,100385.25
2022-11-15T13:19:47.363Z,100372.69
2022-11-15T13:22:32.818Z,100360.03
2022-11-15T13:25:01.902Z,100357.28
2022-11-15T13:27:29.944Z,100358.06
2022-11-15T13:29:56.561Z,100363.59
2022-11-15T13:32:23.219Z,100352.09
2022-11-15T13:34:53.638Z,100358.66
2022-11-15T13:37:23.021Z,100347.13
2022-11-15T13:39:50.689Z,100345.50
2022-11-15T13:42:19.115Z,100336.75
2022-11-15T13:45:03.655Z,100339.78
2022-11-15T13:47:31.052Z,100323.34
2022-11-15T13:49:58.370Z,100323.34
2022-11-15T13:52:29.345Z,100323.34
2022-11-15T13:55:09.997Z,100315.13
2022-11-15T13:57:49.202Z,100313.47
2022-11-15T14:00:44.204Z,100306.91
2022-11-15T14:03:25.413Z,100295.97
2022-11-15T14:06:13.209Z,100298.94
2022-11-15T14:08:41.821Z,100283.34
2022-11-15T14:11:15.747Z,100279.78
2022-11-15T14:13:42.894Z,100275.41
2022-11-15T14:16:17.623Z,100267.75
2022-11-15T14:18:54.169Z,100273.75
2022-11-15T14:21:21.239Z,100256.50
2022-11-15T14:23:48.041Z,100248.84
2022-11-15T14:26:28.164Z,100255.13
2022-11-15T14:28:54.636Z,100243.63
2022-11-15T14:31:21.905Z,100240.06
2022-11-15T14:33:48.481Z,100232.41
2022-11-15T14:36:18.616Z,100235.41
2022-11-15T14:38:45.742Z,100232.94
2022-11-15T14:41:23.540Z,100234.06
2022-11-15T14:43:51.476Z,100226.91
2022-11-15T14:46:18.702Z,100216.53
2022-11-15T14:48:45.154Z,100216.53
2022-11-15T14:51:16.792Z,100212.16
2022-11-15T14:53:44.263Z,100222.56
2022-11-15T14:56:11.279Z,100210.81
2022-11-15T14:58:37.843Z,100203.69
2022-11-15T15:01:15.036Z,100194.63
2022-11-15T15:03:41.605Z,100176.84
2022-11-15T15:06:13.684Z,100182.06
2022-11-15T15:08:44.277Z,100171.09
2022-11-15T15:11:22.310Z,100180.13
2022-11-15T15:13:48.860Z,100176.56
2022-11-15T15:16:15.342Z,100176.56
2022-11-15T15:18:41.884Z,100164.78
2022-11-15T15:21:33.737Z,100172.75
2022-11-15T15:24:03.255Z,100159.31
2022-11-15T15:26:29.825Z,100153.00
2022-11-15T15:28:56.342Z,100148.63
2022-11-15T15:31:22.810Z,100147.00
2022-11-15T15:33:49.322Z,100150.25
2022-11-15T15:36:19.878Z,100141.78
2022-11-15T15:38:47.594Z,100135.47
2022-11-15T15:41:17.872Z,100141.78
2022-11-15T15:43:44.828Z,100137.13
2022-11-15T15:46:17.005Z,100140.69
2022-11-15T15:48:43.465Z,100142.41
2022-11-15T15:51:17.012Z,100127.28
2022-11-15T15:53:46.680Z,100123.47
2022-11-15T15:56:13.129Z,100121.81
2022-11-15T15:58:39.639Z,100130.28
2022-11-15T16:01:06.200Z,100121.22
2022-11-15T16:03:32.819Z,100134.41
2022-11-15T16:05:59.521Z,100122.63
2022-11-15T16:08:31.911Z,100128.94
2022-11-15T16:11:07.095Z,100122.34
2022-11-15T16:13:33.594Z,100119.06
2022-11-15T16:16:01.168Z,100118.50
2022-11-15T16:18:27.756Z,100127.81
2022-11-15T16:20:57.431Z,100128.66
2022-11-15T16:23:25.383Z,100124.53
2022-11-15T16:25:54.095Z,100131.06
2022-11-15T16:28:26.984Z,100127.81
2022-11-15T16:31:09.856Z,100128.06
2022-11-15T16:33:37.575Z,100134.91
2022-11-15T16:36:06.029Z,100126.13
2022-11-15T16:38:32.852Z,100131.63
2022-11-15T16:40:59.981Z,100131.59
2022-11-15T16:43:26.454Z,100132.13
2022-11-15T16:45:52.982Z,100131.31
2022-11-15T16:48:23.687Z,100125.03
2022-11-15T16:50:50.595Z,100118.69
2022-11-15T16:53:17.050Z,100120.34
2022-11-15T16:55:43.507Z,100124.16
2022-11-15T16:58:10.555Z,100125.00
2022-11-15T17:00:37.081Z,100116.25
2022-11-15T17:03:03.862Z,100122.53
2022-11-15T17:05:30.384Z,100120.59
2022-11-15T17:07:57.319Z,100115.09
2022-11-15T17:10:25.875Z,100118.38
2022-11-15T17:12:52.846Z,100109.06
2022-11-15T17:15:19.403Z,100110.69
2022-11-15T17:17:52.831Z,100120.03
2022-11-15T17:20:20.993Z,100111.22
2022-11-15T17:22:47.567Z,100110.13
2022-11-15T17:25:14.494Z,100102.22
2022-11-15T17:27:41.183Z,100103.00
2022-11-15T17:30:08.500Z,100097.50
2022-11-15T17:32:38.673Z,100101.34
2022-11-15T17:35:13.852Z,100096.69
2022-11-15T17:37:42.156Z,100090.41
2022-11-15T17:40:09.213Z,100087.66
2022-11-15T17:42:35.749Z,100087.97
2022-11-15T17:45:06.718Z,100078.91
2022-11-15T17:47:36.619Z,100086.59
2022-11-15T17:50:03.482Z,100079.72
2022-11-15T17:52:30.944Z,100100.81
2022-11-15T17:54:57.408Z,100088.22
2022-11-15T17:57:24.055Z,100087.63
2022-11-15T17:59:50.596Z,100088.47
2022-11-15T18:02:17.179Z,100088.75
2022-11-15T18:04:43.636Z,100079.97
2022-11-15T18:07:11.618Z,100074.25
2022-11-15T18:09:42.117Z,100070.69
2022-11-15T18:12:08.696Z,100066.88
2022-11-15T18:14:35.154Z,100061.06
2022-11-15T18:17:01.667Z,100060.56
2022-11-15T18:19:28.325Z,100059.75
2022-11-15T18:21:57.829Z,100052.59
2022-11-15T18:24:29.979Z,100045.50
2022-11-15T18:26:57.742Z,100051.53
2022-11-15T18:29:24.757Z,100040.00
2022-11-15T18:31:54.953Z,100044.13
2022-11-15T18:34:26.907Z,100046.03
2022-11-15T18:36:53.547Z,100041.63
2022-11-15T18:39:20.775Z,100039.72
2022-11-15T18:41:48.007Z,100042.22
2022-11-15T18:44:15.494Z,100035.09
2022-11-15T18:46:42.842Z,100032.63
2022-11-15T18:49:10.645Z,100034.28
2022-11-15T18:51:37.928Z,100038.38
2022-11-15T18:54:04.624Z,100036.19
2022-11-15T18:56:32.299Z,100028.25
2022-11-15T18:59:00.758Z,100024.44
2022-11-15T19:01:29.791Z,100033.72
2022-11-15T19:03:58.399Z,100034.03
2022-11-15T19:06:27.100Z,100035.66
2022-11-15T19:08:56.259Z,100033.22
2022-11-15T19:11:27.908Z,100035.38
2022-11-15T19:13:59.865Z,100028.81
2022-11-15T19:16:27.958Z,100037.31
2022-11-15T19:18:59.540Z,100033.22
2022-11-15T19:21:27.797Z,100027.19
2022-11-15T19:23:54.601Z,100027.19
2022-11-15T19:26:22.789Z,100031.84
2022-11-15T19:28:52.240Z,100032.94
2022-11-15T19:31:19.702Z,100010.50
2022-11-15T19:33:46.255Z,100019.00
2022-11-15T19:36:18.182Z,100015.44
2022-11-15T19:38:45.021Z,100007.22
2022-11-15T19:41:14.654Z,100010.22
2022-11-15T19:43:41.637Z,100004.47
2022-11-15T19:46:11.330Z,100011.06
2022-11-15T19:48:38.265Z,99992.72
2022-11-15T19:51:07.553Z,100001.75
2022-11-15T19:53:35.497Z,99994.63
2022-11-15T19:56:07.492Z,100009.16
2022-11-15T19:58:36.834Z,99997.13
2022-11-15T20:01:07.881Z,99995.75
2022-11-15T20:03:36.070Z,99987.28
2022-11-15T20:06:08.646Z,100002.88
2022-11-15T20:08:36.340Z,99994.91
2022-11-15T20:11:04.297Z,99991.94
2022-11-15T20:13:31.442Z,99988.06
2022-11-15T20:15:58.544Z,99982.88
2022-11-15T20:18:26.038Z,99990.81
2022-11-15T20:20:52.554Z,99990.28
2022-11-15T20:23:19.024Z,99971.13
2022-11-15T20:25:47.034Z,99976.03
2022-11-15T20:28:19.339Z,99986.19
2022-11-15T20:30:47.120Z,99981.50
2022-11-15T20:33:14.663Z,99977.69
2022-11-15T20:35:41.188Z,99971.13
2022-11-15T20:38:08.113Z,99966.47
2022-11-15T20:40:34.951Z,99967.31
2022-11-15T20:43:01.958Z,99971.66
2022-11-15T20:45:28.468Z,99965.06
2022-11-15T20:47:56.247Z,99963.75
2022-11-15T20:50:41.690Z,99962.38
2022-11-15T20:53:10.487Z,99954.13
2022-11-15T20:55:44.931Z,99956.88
2022-11-15T20:58:11.612Z,99948.41
2022-11-15T21:00:38.219Z,99954.16
2022-11-15T21:03:06.750Z,99945.66
2022-11-15T21:05:44.331Z,99939.66
2022-11-15T21:08:12.426Z,99945.41
2022-11-15T21:10:59.254Z,99941.03
2022-11-15T21:13:26.687Z,99938.81
2022-11-15T21:15:57.587Z,99945.41
2022-11-15T21:18:24.401Z,99934.16
2022-11-15T21:20:52.064Z,99933.34
2022-11-15T21:23:18.514Z,99935.00
2022-11-15T21:25:51.987Z,99930.63
2022-11-15T21:28:18.877Z,99933.34
2022-11-15T21:30:56.525Z,99935.81
2022-11-15T21:33:23.856Z,99918.59
2022-11-15T21:35:51.421Z,99920.78
2022-11-15T21:38:18.163Z,99912.56
2022-11-15T21:40:44.635Z,99916.13
2022-11-15T21:43:11.150Z,99907.09
2022-11-15T21:45:38.557Z,99909.56
2022-11-15T21:48:05.486Z,99908.19
2022-11-15T21:50:32.014Z,99904.38
2022-11-15T21:52:58.483Z,99906.53
2022-11-15T21:55:24.934Z,99899.97
2022-11-15T21:57:51.422Z,99899.97
2022-11-15T22:00:37.181Z,99899.69
2022-11-15T22:03:03.795Z,99894.50
2022-11-15T22:05:30.283Z,99889.03
2022-11-15T22:07:56.740Z,99891.78
2022-11-15T22:10:23.210Z,99884.66
2022-11-15T22:12:49.657Z,99878.09
2022-11-15T22:15:16.220Z,99873.69
2022-11-15T22:17:57.735Z,99877.00
2022-11-15T22:23:10.743Z,99869.88
2022-11-15T22:25:37.206Z,99866.56
2022-11-15T22:28:03.701Z,99877.53
2022-11-15T22:30:30.176Z,99863.84
2022-11-15T22:32:56.655Z,99864.66
2022-11-15T22:35:23.117Z,99848.00
2022-11-15T22:37:49.578Z,99851.84
2022-11-15T22:40:16.228Z,99852.09
2022-11-15T22:42:42.669Z,99851.53
2022-11-15T22:45:09.472Z,99851.28
2022-11-15T22:47:35.938Z,99849.06
2022-11-15T22:50:02.491Z,99841.94
2022-11-15T22:52:28.958Z,99838.94
2022-11-15T22:54:55.423Z,99843.91
2022-11-15T22:57:21.924Z,99842.53
2022-11-15T22:59:48.461Z,99836.78
2022-11-15T23:02:14.991Z,99840.88
2022-11-15T23:04:41.440Z,99831.00
2022-11-15T23:07:07.953Z,99832.66
2022-11-15T23:09:34.503Z,99833.47
2022-11-15T23:12:19.383Z,99828.28
2022-11-15T23:14:45.871Z,99830.75
2022-11-15T23:17:12.523Z,99829.66
2022-11-15T23:19:39.046Z,99834.31
2022-11-15T23:22:24.149Z,99814.59
2022-11-15T23:24:52.430Z,99829.66
2022-11-15T23:27:20.537Z,99826.94
2022-11-15T23:30:06.017Z,99833.22
2022-11-15T23:32:51.365Z,99823.09
2022-11-15T23:35:17.879Z,99823.09
2022-11-15T23:37:44.368Z,99823.09
2022-11-15T23:40:11.623Z,99817.63
2022-11-15T23:42:38.141Z,99814.91
2022-11-15T23:45:05.004Z,99826.94
2022-11-15T23:47:31.478Z,99826.09
2022-11-15T23:49:57.966Z,99827.19
2022-11-15T23:52:25.238Z,99832.66
2022-11-15T23:54:51.695Z,99828.28
2022-11-15T23:57:18.196Z,99826.38
2022-11-15T23:59:44.695Z,99826.38
